Time;durP1;ratioP1;P1;durP2;ratioP2;P2;SDS_P1;SDS_P2;PMS_P1;PMS_P2;Temp;Humidity;BMP_temperature;BMP_pressure;BME280_temperature;BME280_humidity;BME280_pressure;Samples;Min_cycle;Max_cycle;Signal;HPM_P1;HPM_P2
2023/09/16 00:02:16;;;;;;;8.20;3.95;;;;;;;14.85;100.00;101147.38;4945570;28;20074;-69
2023/09/16 00:04:41;;;;;;;7.10;3.63;;;;;;;14.86;100.00;101136.78;4958338;28;20588;-69
2023/09/16 00:07:07;;;;;;;6.50;3.63;;;;;;;14.89;100.00;101132.97;4979842;28;20049;-69
2023/09/16 00:09:33;;;;;;;9.35;4.53;;;;;;;14.92;100.00;101135.25;4977124;28;20038;-69
2023/09/16 00:11:59;;;;;;;8.48;3.95;;;;;;;14.94;100.00;101135.88;4953849;28;20405;-69
2023/09/16 00:14:25;;;;;;;7.82;3.92;;;;;;;14.94;100.00;101131.47;4958557;28;20031;-69
2023/09/16 00:16:52;;;;;;;7.20;3.83;;;;;;;14.95;100.00;101129.66;4974303;28;20111;-69
2023/09/16 00:19:18;;;;;;;6.60;3.80;;;;;;;14.90;100.00;101138.03;4966171;28;20038;-69
2023/09/16 00:21:45;;;;;;;8.65;4.03;;;;;;;14.86;100.00;101134.16;4961182;28;20079;-69
2023/09/16 00:24:11;;;;;;;6.43;3.60;;;;;;;14.79;100.00;101122.78;4960721;28;20042;-69
2023/09/16 00:26:39;;;;;;;7.93;4.70;;;;;;;14.73;100.00;101129.53;4960070;28;20114;-69
2023/09/16 00:29:05;;;;;;;11.07;3.55;;;;;;;14.72;100.00;101133.09;4975260;28;20473;-69
2023/09/16 00:31:30;;;;;;;7.82;4.13;;;;;;;14.70;100.00;101122.03;4971387;28;20461;-69
2023/09/16 00:33:56;;;;;;;6.38;3.88;;;;;;;14.71;100.00;101126.28;4959822;28;20085;-69
2023/09/16 00:36:22;;;;;;;9.50;3.70;;;;;;;14.73;100.00;101126.06;4958890;28;20133;-69
2023/09/16 00:38:48;;;;;;;8.07;4.25;;;;;;;14.74;100.00;101127.72;4959543;28;20047;-70
2023/09/16 00:41:13;;;;;;;10.50;3.97;;;;;;;14.75;100.00;101135.38;4957988;28;20043;-69
2023/09/16 00:43:39;;;;;;;8.68;4.40;;;;;;;14.77;100.00;101128.19;4973655;28;20626;-69
2023/09/16 00:46:05;;;;;;;7.15;4.40;;;;;;;14.78;100.00;101123.75;4975747;28;20039;-69
2023/09/16 00:48:30;;;;;;;7.80;4.38;;;;;;;14.79;100.00;101118.38;4974168;28;20042;-69
2023/09/16 00:50:56;;;;;;;9.57;4.20;;;;;;;14.79;100.00;101120.19;4962090;28;20044;-70
2023/09/16 00:53:22;;;;;;;11.40;5.25;;;;;;;14.79;100.00;101128.00;4960950;28;20063;-69
2023/09/16 00:55:48;;;;;;;7.65;4.22;;;;;;;14.77;100.00;101122.16;4958796;28;20039;-69
2023/09/16 00:58:17;;;;;;;9.57;5.35;;;;;;;14.75;100.00;101132.78;4946781;28;20043;-69
2023/09/16 01:00:44;;;;;;;8.05;4.65;;;;;;;14.70;100.00;101124.66;4962723;28;20114;-69
2023/09/16 01:03:09;;;;;;;12.75;4.53;;;;;;;14.64;100.00;101122.75;4961975;28;20045;-69
2023/09/16 01:05:35;;;;;;;4.88;3.60;;;;;;;14.59;100.00;101123.25;4964656;28;20027;-69
2023/09/16 01:08:03;;;;;;;7.57;4.45;;;;;;;14.55;100.00;101116.72;4976759;28;20518;-69
2023/09/16 01:10:29;;;;;;;8.18;3.70;;;;;;;14.55;100.00;101124.56;4963756;28;20042;-69
2023/09/16 01:12:56;;;;;;;8.07;4.07;;;;;;;14.53;100.00;101120.50;4964672;28;20054;-69
2023/09/16 01:15:27;;;;;;;9.68;3.97;;;;;;;14.54;100.00;101116.91;4962924;28;20039;-69
2023/09/16 01:18:21;;;;;;;9.13;4.32;;;;;;;14.52;100.00;101114.47;4961903;28;20437;-69
2023/09/16 01:20:48;;;;;;;9.13;4.25;;;;;;;14.50;100.00;101113.81;4961691;28;20035;-69
2023/09/16 01:23:18;;;;;;;6.82;4.13;;;;;;;14.49;100.00;101120.03;4965030;28;20093;-69
2023/09/16 01:25:44;;;;;;;6.07;3.78;;;;;;;14.48;100.00;101118.41;4966120;28;20487;-69
2023/09/16 01:28:09;;;;;;;6.53;3.60;;;;;;;14.49;100.00;101107.00;4980666;28;20160;-69
2023/09/16 01:30:42;;;;;;;7.85;4.15;;;;;;;14.51;100.00;101101.59;4977866;28;20502;-69
2023/09/16 01:33:29;;;;;;;8.40;4.13;;;;;;;14.53;100.00;101110.06;4962777;28;20042;-69
2023/09/16 01:36:02;;;;;;;8.48;4.10;;;;;;;14.56;100.00;101110.53;4964454;28;20053;-70
2023/09/16 01:38:28;;;;;;;;;;;;;;;14.57;100.00;101095.72;4966473;28;20131;-69
2023/09/16 01:40:56;;;;;;;5.80;3.63;;;;;;;14.59;100.00;101104.19;4980494;28;19914;-71
2023/09/16 01:43:22;;;;;;;8.05;3.70;;;;;;;14.59;100.00;101104.97;4967341;28;20039;-69
2023/09/16 01:45:47;;;;;;;8.27;3.95;;;;;;;14.59;100.00;101098.97;4966751;28;20405;-69
2023/09/16 01:48:16;;;;;;;8.38;4.43;;;;;;;14.59;100.00;101097.16;4962004;28;20437;-69
2023/09/16 01:50:43;;;;;;;6.07;3.72;;;;;;;14.59;100.00;101094.53;4965342;28;20045;-69
2023/09/16 01:53:09;;;;;;;7.10;3.95;;;;;;;14.61;100.00;101083.94;4961551;28;20038;-69
2023/09/16 01:55:37;;;;;;;4.88;3.72;;;;;;;14.65;100.00;101089.63;4961706;28;20490;-69
2023/09/16 01:58:03;;;;;;;7.05;4.28;;;;;;;14.66;100.00;101089.44;4963747;28;20063;-69
2023/09/16 02:00:29;;;;;;;6.88;3.97;;;;;;;14.69;100.00;101094.31;4951811;28;20034;-69
2023/09/16 02:02:57;;;;;;;7.15;4.10;;;;;;;14.73;100.00;101089.53;4963978;28;20060;-69
2023/09/16 02:05:23;;;;;;;7.63;4.32;;;;;;;14.74;100.00;101091.19;4966112;28;20520;-69
2023/09/16 02:07:49;;;;;;;6.97;4.32;;;;;;;14.75;100.00;101090.19;4980676;28;20054;-69
2023/09/16 02:10:15;;;;;;;5.57;3.75;;;;;;;14.76;100.00;101089.19;4984480;28;20061;-69
2023/09/16 02:12:40;;;;;;;6.32;3.63;;;;;;;14.76;100.00;101089.19;4981972;28;20034;-69
2023/09/16 02:15:07;;;;;;;5.90;3.90;;;;;;;14.73;100.00;101089.53;4981038;28;20551;-69
2023/09/16 02:17:33;;;;;;;5.43;3.97;;;;;;;14.68;100.00;101087.47;4980971;28;20105;-69
2023/09/16 02:19:58;;;;;;;7.10;3.45;;;;;;;14.62;100.00;101080.34;4983754;28;20027;-70
2023/09/16 02:22:24;;;;;;;11.98;4.13;;;;;;;14.58;100.00;101085.09;4953489;28;20117;-69
2023/09/16 02:24:49;;;;;;;6.43;4.20;;;;;;;14.56;100.00;101084.44;4952590;28;20033;-69
2023/09/16 02:27:15;;;;;;;6.40;3.90;;;;;;;14.56;100.00;101094.88;4981962;28;20452;-70
2023/09/16 02:29:40;;;;;;;7.28;4.10;;;;;;;14.57;100.00;101100.94;4965938;28;20033;-70
2023/09/16 02:32:06;;;;;;;5.97;3.95;;;;;;;14.56;100.00;101092.28;4984304;28;20039;-69
2023/09/16 02:34:36;;;;;;;8.38;4.57;;;;;;;14.57;100.00;101103.53;4965773;28;20134;-69
2023/09/16 02:37:01;;;;;;;7.45;4.18;;;;;;;14.57;100.00;101087.88;4966235;28;20433;-69
2023/09/16 02:39:28;;;;;;;6.05;3.88;;;;;;;14.53;100.00;101090.00;4985125;28;20035;-69
2023/09/16 02:41:54;;;;;;;6.35;4.10;;;;;;;14.47;100.00;101095.94;4948656;28;20047;-69
2023/09/16 02:44:20;;;;;;;6.82;4.10;;;;;;;14.44;100.00;101091.03;4963960;28;20039;-69
2023/09/16 02:46:46;;;;;;;6.10;4.10;;;;;;;14.44;100.00;101093.66;4981359;28;20053;-70
2023/09/16 02:49:14;;;;;;;10.68;4.47;;;;;;;14.44;100.00;101093.66;4982767;28;20081;-69
2023/09/16 02:51:39;;;;;;;9.05;4.30;;;;;;;14.43;100.00;101099.88;4979842;28;20579;-70
2023/09/16 02:54:06;;;;;;;5.65;4.05;;;;;;;14.45;100.00;101091.84;4982308;28;20046;-69
2023/09/16 02:56:32;;;;;;;7.03;4.35;;;;;;;14.46;100.00;101093.47;4965580;28;20456;-69
2023/09/16 02:58:58;;;;;;;7.90;4.10;;;;;;;14.45;100.00;101097.06;4983151;28;20037;-70
2023/09/16 03:01:25;;;;;;;7.03;3.92;;;;;;;14.46;100.00;101088.28;4963792;28;20035;-69
2023/09/16 03:03:50;;;;;;;8.00;4.78;;;;;;;14.44;100.00;101080.59;4982894;28;20031;-70
2023/09/16 03:06:16;;;;;;;6.20;4.25;;;;;;;14.41;100.00;101076.56;4950357;28;20051;-70
2023/09/16 03:08:41;;;;;;;6.55;3.92;;;;;;;14.38;100.00;101083.91;4967144;28;20026;-70
2023/09/16 03:11:07;;;;;;;8.77;4.10;;;;;;;14.35;100.00;101084.25;4979636;28;20452;-69
2023/09/16 03:13:34;;;;;;;7.60;4.50;;;;;;;14.33;100.00;101081.81;4966957;28;20629;-69
2023/09/16 03:16:15;;;;;;;10.77;4.45;;;;;;;14.31;100.00;101075.16;4979298;28;20033;-70
2023/09/16 03:18:49;;;;;;;10.23;4.43;;;;;;;14.31;100.00;101075.97;4979947;28;20053;-70
2023/09/16 03:21:17;;;;;;;12.77;4.38;;;;;;;14.30;100.00;101082.19;4965127;28;20485;-70
2023/09/16 03:23:44;;;;;;;7.07;3.95;;;;;;;14.29;100.00;101072.72;4982199;28;20042;-70
2023/09/16 03:26:11;;;;;;;7.72;4.28;;;;;;;14.29;100.00;101075.34;4984003;23;20050;-68
2023/09/16 03:28:41;;;;;;;10.75;5.03;;;;;;;14.28;100.00;101072.88;4964642;28;20035;-67
2023/09/16 03:31:08;;;;;;;6.93;4.63;;;;;;;14.27;100.00;101071.28;4950200;28;20066;-68
2023/09/16 03:33:33;;;;;;;9.15;4.40;;;;;;;14.26;100.00;101073.09;4953573;28;20108;-67
2023/09/16 03:35:59;;;;;;;8.45;3.67;;;;;;;14.25;100.00;101074.06;4952191;28;20568;-68
2023/09/16 03:38:32;;;;;;;7.88;4.13;;;;;;;14.24;100.00;101079.44;4969673;28;20038;-67
2023/09/16 03:41:01;;;;;;;8.60;4.75;;;;;;;14.21;100.00;101072.78;4952517;28;20648;-68
2023/09/16 03:43:27;;;;;;;7.63;4.88;;;;;;;14.20;100.00;101068.53;4957087;28;20102;-67
2023/09/16 03:45:53;;;;;;;6.30;4.80;;;;;;;14.17;100.00;101055.88;4968383;28;20062;-68
2023/09/16 03:48:19;;;;;;;9.55;4.80;;;;;;;14.12;100.00;101056.38;4945266;28;20045;-67
2023/09/16 03:50:46;;;;;;;10.73;4.85;;;;;;;14.09;100.00;101061.13;4966320;28;20038;-68
2023/09/16 03:53:12;;;;;;;9.10;4.47;;;;;;;14.08;100.00;101065.53;4965314;28;20041;-67
2023/09/16 03:55:39;;;;;;;6.07;4.05;;;;;;;14.06;100.00;101061.47;4951101;28;20030;-67
2023/09/16 03:58:05;;;;;;;8.75;4.78;;;;;;;14.03;100.00;101057.41;4952648;28;20038;-67
2023/09/16 04:00:31;;;;;;;8.82;4.78;;;;;;;14.00;100.00;101060.38;4953155;28;20456;-67
2023/09/16 04:02:56;;;;;;;6.40;4.10;;;;;;;13.97;100.00;101058.09;4935318;28;20640;-67
2023/09/16 04:05:21;;;;;;;10.05;4.70;;;;;;;13.95;100.00;101052.25;4939666;28;20049;-67
2023/09/16 04:07:47;;;;;;;10.95;4.57;;;;;;;13.93;100.00;101049.00;4966271;28;20034;-67
2023/09/16 04:10:13;;;;;;;10.65;4.85;;;;;;;13.92;100.00;101057.78;4954992;28;20062;-68
2023/09/16 04:12:39;;;;;;;8.40;4.57;;;;;;;13.90;100.00;101052.78;4936334;28;20138;-67
2023/09/16 04:15:05;;;;;;;9.05;4.93;;;;;;;13.90;100.00;101046.72;4955048;28;20042;-67
2023/09/16 04:17:31;;;;;;;6.88;4.38;;;;;;;13.89;100.00;101045.13;4969203;28;20400;-67
2023/09/16 04:19:57;;;;;;;10.48;4.22;;;;;;;13.88;100.00;101046.94;4965412;28;20035;-67
2023/09/16 04:22:22;;;;;;;8.40;5.10;;;;;;;13.88;100.00;101046.94;4949572;28;20057;-67
2023/09/16 04:24:48;;;;;;;6.55;4.45;;;;;;;13.89;100.00;101048.53;4966530;28;20050;-67
2023/09/16 04:27:14;;;;;;;8.82;4.78;;;;;;;13.90;100.00;101047.56;4951758;28;20150;-67
2023/09/16 04:29:41;;;;;;;8.93;5.13;;;;;;;13.90;100.00;101054.53;4951911;28;20037;-67
2023/09/16 04:32:06;;;;;;;8.32;5.05;;;;;;;13.91;100.00;101048.38;4951214;28;20393;-68
2023/09/16 04:34:32;;;;;;;8.82;5.13;;;;;;;13.91;100.00;101046.56;4966033;28;20052;-67
2023/09/16 04:36:59;;;;;;;6.75;4.35;;;;;;;13.90;100.00;101041.50;4954009;28;20031;-67
2023/09/16 04:39:28;;;;;;;10.77;5.28;;;;;;;13.90;100.00;101046.72;4955212;28;20057;-68
2023/09/16 04:41:54;;;;;;;8.88;4.78;;;;;;;13.90;100.00;101046.72;4948686;28;20577;-67
2023/09/16 04:44:21;;;;;;;6.75;4.47;;;;;;;13.90;100.00;101036.31;4950136;28;20594;-68
2023/09/16 04:46:47;;;;;;;9.65;4.40;;;;;;;13.91;100.00;101049.16;4933583;28;20102;-67
2023/09/16 04:49:13;;;;;;;8.15;4.25;;;;;;;13.90;100.00;101037.13;4953954;28;20030;-68
2023/09/16 04:51:38;;;;;;;9.15;4.47;;;;;;;13.90;100.00;101042.34;4951380;28;20039;-68
2023/09/16 04:54:11;;;;;;;7.55;4.72;;;;;;;13.91;100.00;101045.75;4950930;28;20027;-68
2023/09/16 04:56:37;;;;;;;7.82;4.43;;;;;;;13.90;100.00;101042.34;4947058;28;20046;-67
2023/09/16 04:59:02;;;;;;;6.25;4.35;;;;;;;13.91;100.00;101043.16;4948917;28;20483;-67
2023/09/16 05:01:30;;;;;;;8.52;4.72;;;;;;;13.89;100.00;101039.91;4967174;28;20034;-67
2023/09/16 05:03:56;;;;;;;7.50;4.07;;;;;;;13.88;100.00;101040.88;4967298;28;20113;-68
2023/09/16 05:06:23;;;;;;;8.00;4.50;;;;;;;13.87;100.00;101040.06;4952025;28;20038;-68
2023/09/16 05:08:49;;;;;;;7.10;4.40;;;;;;;13.85;100.00;101041.25;4952474;28;20023;-68
2023/09/16 05:11:15;;;;;;;8.73;5.13;;;;;;;13.83;100.00;101037.00;4951365;28;20480;-68
2023/09/16 05:13:46;;;;;;;11.27;5.00;;;;;;;13.81;100.00;101038.16;4950126;28;20532;-67
2023/09/16 05:16:12;;;;;;;8.07;5.18;;;;;;;13.78;100.00;101041.91;4949320;28;20038;-68
2023/09/16 05:18:37;;;;;;;8.32;5.28;;;;;;;13.78;100.00;101041.91;4951524;28;20392;-67
2023/09/16 05:21:03;;;;;;;10.43;5.32;;;;;;;13.77;100.00;101042.91;4948839;28;20031;-68
2023/09/16 05:23:30;;;;;;;8.85;5.28;;;;;;;13.77;100.00;101042.09;4936235;28;20037;-68
2023/09/16 05:25:56;;;;;;;12.45;6.25;;;;;;;13.76;100.00;101046.47;4964752;28;20039;-68
2023/09/16 05:28:30;;;;;;;11.98;5.43;;;;;;;13.76;100.00;101045.69;4950902;28;20441;-68
2023/09/16 05:30:58;;;;;;;8.93;5.05;;;;;;;13.75;100.00;101041.44;4947140;28;20038;-68
2023/09/16 05:33:25;;;;;;;8.48;5.70;;;;;;;13.76;100.00;101041.25;4949962;28;20410;-68
2023/09/16 05:35:51;;;;;;;8.18;5.07;;;;;;;13.76;100.00;101037.84;4968913;28;20062;-67
2023/09/16 05:38:17;;;;;;;10.20;5.80;;;;;;;13.76;100.00;101041.25;4949494;28;20587;-68
2023/09/16 05:40:43;;;;;;;9.23;5.13;;;;;;;13.77;100.00;101042.91;4970560;28;20030;-68
2023/09/16 05:43:08;;;;;;;8.80;5.32;;;;;;;13.78;100.00;101041.09;4949655;28;20066;-67
2023/09/16 05:45:36;;;;;;;13.32;6.13;;;;;;;13.79;100.00;101046.16;4951249;28;20113;-68
2023/09/16 05:48:04;;;;;;;11.90;5.90;;;;;;;13.80;100.00;101036.53;4949078;28;20425;-68
2023/09/16 05:50:31;;;;;;;8.43;5.63;;;;;;;13.81;100.00;101040.78;4967717;28;20042;-68
2023/09/16 05:52:58;;;;;;;10.85;5.93;;;;;;;13.82;100.00;101039.78;4951276;28;20056;-67
2023/09/16 05:55:23;;;;;;;10.43;5.75;;;;;;;13.82;100.00;101030.19;4951694;28;20531;-68
2023/09/16 05:57:50;;;;;;;9.48;5.90;;;;;;;13.85;100.00;101042.03;4953486;28;20035;-67
2023/09/16 06:00:16;;;;;;;9.45;5.60;;;;;;;13.87;100.00;101037.47;4951779;28;20041;-68
2023/09/16 06:02:41;;;;;;;8.57;5.25;;;;;;;13.90;100.00;101038.91;4951928;28;20042;-68
2023/09/16 06:05:08;;;;;;;10.02;5.80;;;;;;;13.93;100.00;101042.00;4965898;28;20034;-68
2023/09/16 06:07:41;;;;;;;10.23;5.55;;;;;;;13.97;100.00;101042.47;4962174;28;20049;-68
2023/09/16 06:10:09;;;;;;;9.07;5.97;;;;;;;14.00;100.00;101042.13;4953767;28;21338;-68
2023/09/16 06:12:35;;;;;;;12.40;6.47;;;;;;;14.02;100.00;101037.53;4952529;28;20038;-68
2023/09/16 06:15:01;;;;;;;9.88;5.82;;;;;;;14.05;100.00;101042.41;4953037;28;20033;-68
2023/09/16 06:17:27;;;;;;;8.90;5.63;;;;;;;14.08;100.00;101049.88;4948962;28;20038;-68
2023/09/16 06:19:54;;;;;;;11.57;6.22;;;;;;;14.14;100.00;101045.78;4953472;28;20085;-67
2023/09/16 06:22:21;;;;;;;7.93;5.70;;;;;;;14.20;100.00;101053.72;4964199;28;20114;-68
2023/09/16 06:24:46;;;;;;;10.98;5.90;;;;;;;14.28;100.00;101047.63;4966800;28;20027;-68
2023/09/16 06:27:14;;;;;;;10.93;5.63;;;;;;;14.39;100.00;101054.22;4941707;28;20045;-68
2023/09/16 06:29:41;;;;;;;10.95;5.95;;;;;;;14.49;100.00;101049.59;4950695;28;20093;-68
2023/09/16 06:32:07;;;;;;;9.55;5.80;;;;;;;14.64;100.00;101054.88;4968545;28;20035;-67
2023/09/16 06:34:34;;;;;;;10.55;5.68;;;;;;;14.81;100.00;101055.56;4934531;28;20027;-68
2023/09/16 06:37:00;;;;;;;9.25;6.35;;;;;;;15.04;100.00;101045.03;4951747;28;20053;-67
2023/09/16 06:39:26;;;;;;;11.07;6.30;;;;;;;15.34;100.00;101051.06;4952486;28;20038;-67
2023/09/16 06:41:51;;;;;;;10.13;6.82;;;;;;;15.80;100.00;101049.22;4951058;28;20043;-67
2023/09/16 06:44:17;;;;;;;8.63;5.85;;;;;;;16.39;100.00;101041.19;4954212;28;20425;-67
2023/09/16 06:46:43;;;;;;;8.75;6.00;;;;;;;17.12;100.00;101044.34;4954522;28;20527;-68
2023/09/16 06:49:09;;;;;;;11.05;5.15;;;;;;;17.88;99.29;101053.16;4975383;28;20022;-68
2023/09/16 06:51:35;;;;;;;9.18;4.78;;;;;;;18.43;92.90;101053.81;4952904;28;20505;-67
2023/09/16 06:54:00;;;;;;;25.58;13.75;;;;;;;19.07;90.01;101051.56;4955223;28;20034;-68
2023/09/16 06:56:26;;;;;;;13.18;7.95;;;;;;;19.40;85.66;101048.84;4974672;28;20035;-67
2023/09/16 06:58:51;;;;;;;8.48;4.78;;;;;;;19.80;83.47;101053.13;4944118;28;20453;-67
2023/09/16 07:01:17;;;;;;;9.60;4.78;;;;;;;20.25;80.15;101042.53;4970710;28;20078;-67
2023/09/16 07:03:42;;;;;;;7.40;4.50;;;;;;;20.53;78.19;101047.34;4974287;28;20051;-67
2023/09/16 07:06:08;;;;;;;7.82;4.47;;;;;;;20.80;74.79;101037.41;4958122;28;20043;-67
2023/09/16 07:08:33;;;;;;;6.00;4.28;;;;;;;20.87;75.30;101036.50;4978229;28;20035;-67
2023/09/16 07:10:59;;;;;;;7.30;4.63;;;;;;;20.85;74.04;101036.75;4973467;28;20034;-67
2023/09/16 07:13:24;;;;;;;9.70;4.40;;;;;;;21.04;72.93;101045.47;4971241;28;20045;-67
2023/09/16 07:15:56;;;;;;;7.88;4.13;;;;;;;21.25;73.74;101053.94;4955176;28;20042;-67
2023/09/16 07:18:22;;;;;;;9.80;4.68;;;;;;;21.35;72.10;101052.41;4967582;28;20047;-67
2023/09/16 07:20:50;;;;;;;6.13;3.92;;;;;;;21.66;72.38;101050.66;4973138;28;20041;-67
2023/09/16 07:23:16;;;;;;;8.18;4.47;;;;;;;21.74;69.90;101042.41;4949242;28;20039;-67
2023/09/16 07:25:41;;;;;;;8.13;4.15;;;;;;;21.55;70.05;101040.84;4971460;28;20527;-67
2023/09/16 07:28:07;;;;;;;7.47;3.78;;;;;;;21.68;70.14;101037.19;4972938;28;20039;-67
2023/09/16 07:30:34;;;;;;;4.75;3.70;;;;;;;21.86;68.50;101047.72;4971036;28;20038;-67
2023/09/16 07:33:00;;;;;;;6.38;3.92;;;;;;;21.76;68.21;101055.38;4957693;28;20118;-66
2023/09/16 07:35:26;;;;;;;5.93;3.97;;;;;;;21.82;68.58;101058.97;4939865;28;20038;-67
2023/09/16 07:37:52;;;;;;;6.13;3.97;;;;;;;21.72;68.55;101051.59;4972617;28;20049;-67
2023/09/16 07:40:17;;;;;;;9.15;3.63;;;;;;;22.17;68.73;101053.78;4953823;28;20038;-66
2023/09/16 07:42:43;;;;;;;5.65;3.78;;;;;;;22.34;67.15;101060.03;4938968;28;20397;-67
2023/09/16 07:45:09;;;;;;;7.32;3.55;;;;;;;22.39;67.43;101054.03;4932974;28;20086;-67
2023/09/16 07:47:35;;;;;;;5.53;3.88;;;;;;;22.59;65.32;101045.00;4954738;28;20034;-67
2023/09/16 07:50:01;;;;;;;6.47;3.40;;;;;;;22.76;65.17;101055.69;4937766;28;20448;-66
2023/09/16 07:52:26;;;;;;;8.65;3.50;;;;;;;23.08;64.34;101061.41;4965243;28;20109;-67
2023/09/16 07:54:55;;;;;;;8.82;3.90;;;;;;;22.82;63.90;101060.03;4968268;28;20471;-67
2023/09/16 07:57:21;;;;;;;8.90;3.25;;;;;;;22.85;64.14;101052.44;4967336;28;20042;-67
2023/09/16 07:59:46;;;;;;;5.45;2.97;;;;;;;23.03;63.74;101048.88;4967940;28;20571;-67
2023/09/16 08:02:12;;;;;;;8.75;3.70;;;;;;;23.36;62.67;101051.91;4952438;28;20058;-67
2023/09/16 08:04:37;;;;;;;6.13;3.72;;;;;;;23.24;62.20;101057.22;4948798;28;20045;-67
2023/09/16 08:07:03;;;;;;;4.30;3.47;;;;;;;23.63;62.49;101052.16;4973210;28;20034;-67
2023/09/16 08:09:28;;;;;;;9.50;3.75;;;;;;;23.61;60.61;101048.94;4948011;28;20038;-67
2023/09/16 08:11:54;;;;;;;4.35;3.20;;;;;;;23.70;60.01;101048.31;4972949;28;20027;-67
2023/09/16 08:14:19;;;;;;;4.78;3.83;;;;;;;23.64;59.93;101051.94;4950742;28;20185;-67
2023/09/16 08:16:45;;;;;;;5.75;3.58;;;;;;;23.67;60.83;101048.78;4953970;28;20034;-67
2023/09/16 08:19:12;;;;;;;5.13;3.50;;;;;;;23.71;60.89;101054.41;4949320;28;20047;-67
2023/09/16 08:21:37;;;;;;;6.35;3.78;;;;;;;23.75;61.33;101058.19;4954628;28;20525;-67
2023/09/16 08:24:03;;;;;;;8.70;3.70;;;;;;;23.42;61.24;101064.22;4937350;28;20045;-67
2023/09/16 08:26:29;;;;;;;6.13;3.58;;;;;;;23.15;62.63;101070.03;4951316;28;20470;-66
2023/09/16 08:28:54;;;;;;;6.03;3.88;;;;;;;22.88;63.84;101069.69;4971476;28;20057;-67
2023/09/16 08:31:20;;;;;;;7.35;3.92;;;;;;;22.79;64.87;101073.69;4967793;28;20050;-66
2023/09/16 08:33:45;;;;;;;12.27;4.20;;;;;;;22.85;64.77;101068.31;4969696;28;20045;-67
2023/09/16 08:36:11;;;;;;;5.93;3.50;;;;;;;23.00;65.98;101067.84;4967246;28;20050;-67
2023/09/16 08:38:36;;;;;;;5.95;3.72;;;;;;;23.26;65.04;101069.19;4951609;28;20077;-67
2023/09/16 08:41:15;;;;;;;5.40;3.80;;;;;;;23.24;63.70;101067.81;4951974;28;20681;-67
2023/09/16 08:43:42;;;;;;;5.97;3.58;;;;;;;23.22;63.18;101068.03;4964733;28;20058;-67
2023/09/16 08:46:17;;;;;;;7.03;3.75;;;;;;;23.36;62.93;101067.78;4968094;28;20038;-67
2023/09/16 08:48:45;;;;;;;10.25;4.22;;;;;;;23.60;62.34;101071.97;4967539;28;20570;-67
2023/09/16 08:51:17;;;;;;;6.72;3.60;;;;;;;23.90;60.88;101062.97;4971281;28;20126;-67
2023/09/16 08:53:43;;;;;;;8.88;4.30;;;;;;;23.81;61.20;101064.41;4966981;28;20109;-66
2023/09/16 08:56:09;;;;;;;5.50;3.33;;;;;;;24.20;61.46;101065.34;4969831;28;20059;-66
2023/09/16 08:58:36;;;;;;;8.48;3.33;;;;;;;24.63;59.17;101057.81;4948075;28;20042;-66
2023/09/16 09:01:03;;;;;;;8.40;3.47;;;;;;;24.86;60.15;101056.78;4973158;28;20038;-67
2023/09/16 09:03:32;;;;;;;8.25;3.58;;;;;;;25.04;58.68;101064.44;4969464;28;20046;-67
2023/09/16 09:05:58;;;;;;;6.35;4.13;;;;;;;25.09;58.30;101057.59;4954387;28;20129;-67
2023/09/16 09:08:24;;;;;;;9.85;4.00;;;;;;;24.75;57.80;101065.66;4968718;28;20416;-66
2023/09/16 09:10:50;;;;;;;5.85;4.05;;;;;;;24.75;58.38;101066.47;4951113;28;20478;-67
2023/09/16 09:13:16;;;;;;;9.73;3.88;;;;;;;24.65;60.03;101074.25;4969917;28;22021;-67
2023/09/16 09:15:47;;;;;;;6.53;4.07;;;;;;;24.42;60.07;101081.31;4970477;28;20026;-67
2023/09/16 09:18:16;;;;;;;10.98;3.92;;;;;;;24.10;61.14;101081.88;4967021;28;20046;-66
2023/09/16 09:20:42;;;;;;;10.27;3.78;;;;;;;24.36;61.53;101081.50;4952397;28;20040;-67
2023/09/16 09:23:07;;;;;;;7.68;3.90;;;;;;;24.55;61.12;101088.19;4966389;28;20039;-67
2023/09/16 09:25:36;;;;;;;6.10;3.10;;;;;;;24.77;61.62;101079.47;4969900;23;20054;-72
2023/09/16 09:28:03;;;;;;;5.60;4.03;;;;;;;24.41;62.70;101086.84;4960882;28;20034;-72
2023/09/16 09:30:30;;;;;;;13.77;4.95;;;;;;;24.25;62.84;101096.41;4973128;28;20656;-71
2023/09/16 09:32:58;;;;;;;7.68;4.32;;;;;;;24.44;60.76;101091.69;4964117;28;20082;-72
2023/09/16 09:35:24;;;;;;;8.10;3.92;;;;;;;24.61;60.73;101079.25;4961379;28;20027;-73
2023/09/16 09:37:50;;;;;;;5.60;3.63;;;;;;;24.69;60.14;101083.31;4952893;28;20042;-71
2023/09/16 09:40:17;;;;;;;7.38;3.83;;;;;;;24.71;60.46;101083.09;4931037;28;20031;-72
2023/09/16 09:42:45;;;;;;;6.40;4.45;;;;;;;24.68;60.10;101093.13;4948699;28;20127;-72
2023/09/16 09:45:11;;;;;;;7.22;3.50;;;;;;;24.72;61.92;101088.16;4949744;28;20066;-72
2023/09/16 09:47:40;;;;;;;8.18;4.00;;;;;;;24.90;61.85;101099.53;4947068;28;20102;-72
2023/09/16 09:50:07;;;;;;;5.78;3.97;;;;;;;24.94;61.72;101092.69;4951243;28;20047;-72
2023/09/16 09:52:37;;;;;;;6.15;4.40;;;;;;;24.90;61.64;101096.88;4966387;28;20126;-72
2023/09/16 09:55:03;;;;;;;8.02;4.20;;;;;;;24.98;61.95;101091.97;4946664;28;20054;-72
2023/09/16 09:57:28;;;;;;;8.15;4.22;;;;;;;25.05;61.22;101091.78;4949719;28;20048;-72
2023/09/16 09:59:58;;;;;;;5.82;3.83;;;;;;;25.23;61.16;101083.53;4945575;28;20054;-72
2023/09/16 10:02:26;;;;;;;6.88;3.78;;;;;;;25.20;61.30;101088.50;4952379;28;20054;-72
2023/09/16 10:05:05;;;;;;;8.13;4.20;;;;;;;25.28;58.99;101085.47;4949437;28;20039;-72
2023/09/16 10:07:33;;;;;;;6.25;4.30;;;;;;;25.13;58.66;101093.19;4944338;28;20039;-71
2023/09/16 10:09:59;;;;;;;7.13;4.25;;;;;;;25.11;59.53;101093.47;4949136;28;20031;-72
2023/09/16 10:12:25;;;;;;;5.50;4.22;;;;;;;24.89;60.93;101093.44;4948294;28;20669;-72
2023/09/16 10:14:53;;;;;;;9.98;5.00;;;;;;;24.85;60.30;101093.13;4946798;28;20074;-72
2023/09/16 10:17:21;;;;;;;10.65;4.03;;;;;;;24.82;60.02;101093.59;4944814;28;20039;-72
2023/09/16 10:19:47;;;;;;;6.32;3.90;;;;;;;24.90;61.99;101094.22;4947770;28;20071;-72
2023/09/16 10:22:14;;;;;;;10.63;4.47;;;;;;;25.23;61.69;101088.84;4955407;28;20050;-72
2023/09/16 10:24:43;;;;;;;5.30;3.63;;;;;;;25.21;60.52;101084.81;4953388;28;20059;-72
2023/09/16 10:27:22;;;;;;;5.53;4.20;;;;;;;25.35;60.52;101090.56;4952586;28;20047;-72
2023/09/16 10:29:48;;;;;;;9.57;4.35;;;;;;;25.42;59.60;101084.03;4966088;28;20141;-72
2023/09/16 10:32:15;;;;;;;8.23;4.75;;;;;;;25.55;56.94;101079.41;4950475;28;20507;-71
2023/09/16 10:34:44;;;;;;;6.75;4.15;;;;;;;25.41;57.90;101085.09;4951430;28;20185;-72
2023/09/16 10:37:10;;;;;;;7.50;4.15;;;;;;;25.47;58.76;101085.94;4955132;28;20055;-72
2023/09/16 10:39:38;;;;;;;8.05;4.45;;;;;;;25.42;60.17;101077.94;4968121;28;20050;-72
2023/09/16 10:42:05;;;;;;;7.88;4.45;;;;;;;25.52;60.34;101069.28;4951480;28;20118;-72
2023/09/16 10:44:32;;;;;;;5.30;4.18;;;;;;;25.67;59.83;101071.28;4952154;28;20086;-72
2023/09/16 10:46:59;;;;;;;6.00;4.28;;;;;;;25.73;59.30;101065.78;4948917;28;20043;-72
2023/09/16 10:49:24;;;;;;;4.63;3.92;;;;;;;25.51;59.50;101067.69;4951557;28;20024;-71
2023/09/16 10:51:52;;;;;;;7.20;4.20;;;;;;;25.67;57.97;101068.63;4951402;28;20449;-72
2023/09/16 10:54:25;;;;;;;7.50;4.63;;;;;;;25.55;60.09;101066.13;4954886;28;20109;-72
2023/09/16 10:56:55;;;;;;;7.32;4.68;;;;;;;25.50;60.50;101060.75;4946330;28;20035;-72
2023/09/16 10:59:25;;;;;;;8.00;5.35;;;;;;;25.50;57.75;101063.41;4950684;28;20078;-72
2023/09/16 11:01:55;;;;;;;5.85;4.63;;;;;;;25.75;57.01;101062.84;4947901;28;20042;-71
2023/09/16 11:04:21;;;;;;;6.32;4.85;;;;;;;25.87;57.54;101065.38;4967241;28;20035;-72
2023/09/16 11:06:52;;;;;;;6.95;5.68;;;;;;;25.75;59.19;101068.16;4947610;28;20046;-71
2023/09/16 11:09:24;;;;;;;7.43;5.03;;;;;;;25.82;59.88;101068.78;4956440;28;20385;-72
2023/09/16 11:11:50;;;;;;;7.35;4.22;;;;;;;25.83;60.06;101070.38;4948705;28;20031;-72
2023/09/16 11:14:20;;;;;;;9.68;5.63;;;;;;;25.84;58.91;101067.47;4951871;28;20027;-71
2023/09/16 11:16:48;;;;;;;5.68;4.70;;;;;;;25.73;59.72;101070.28;4949501;28;20407;-72
2023/09/16 11:19:15;;;;;;;8.95;5.20;;;;;;;25.64;59.94;101067.28;4953071;28;20050;-72